Time;durP1;ratioP1;P1;durP2;ratioP2;P2;SDS_P1;SDS_P2;PMS_P1;PMS_P2;Temp;Humidity;BMP_temperature;BMP_pressure;BME280_temperature;BME280_humidity;BME280_pressure;Samples;Min_cycle;Max_cycle;Signal;HPM_P1;HPM_P2
2021/01/22 00:00:18;;;;;;;5.90;1.87;;;;;;;3.89;90.32;98990.06;6140690;28;20202;-72
2021/01/22 00:03:26;;;;;;;2.50;1.80;;;;;;;3.71;90.22;98994.34;6138257;28;20230;-73
2021/01/22 00:06:29;;;;;;;4.50;2.07;;;;;;;3.71;90.62;98983.53;6123993;29;20243;-73
2021/01/22 00:09:33;;;;;;;3.17;1.60;;;;;;;3.94;89.97;98980.25;6138752;28;20211;-73
2021/01/22 00:12:36;;;;;;;6.47;2.00;;;;;;;3.83;89.27;98974.75;6134054;28;20211;-71
2021/01/22 00:15:40;;;;;;;2.37;1.67;;;;;;;3.86;89.94;98979.69;6132494;28;20199;-77
2021/01/22 00:18:43;;;;;;;3.40;1.90;;;;;;;3.92;90.16;98978.84;6123943;29;20211;-71
2021/01/22 00:21:47;;;;;;;1.83;1.60;;;;;;;3.93;90.03;98964.31;6124287;29;20199;-72
2021/01/22 00:24:50;;;;;;;2.13;1.70;;;;;;;3.96;89.21;98958.44;6137262;29;20214;-73
2021/01/22 00:27:53;;;;;;;5.93;1.63;;;;;;;3.82;89.67;98965.84;6123034;29;20605;-72
2021/01/22 00:30:58;;;;;;;2.83;1.97;;;;;;;3.94;90.09;98961.38;6128127;29;20223;-72
2021/01/22 00:34:01;;;;;;;3.53;1.70;;;;;;;3.82;89.97;98973.94;6130953;29;20209;-74
2021/01/22 00:37:05;;;;;;;3.97;1.63;;;;;;;3.86;90.01;98968.91;6129819;29;20282;-72
2021/01/22 00:40:08;;;;;;;3.03;1.87;;;;;;;3.86;89.97;98968.91;6128707;28;20519;-72
2021/01/22 00:43:12;;;;;;;2.00;1.80;;;;;;;3.78;90.68;98978.94;6130627;29;20198;-72
2021/01/22 00:46:17;;;;;;;3.00;1.70;;;;;;;3.78;90.82;98965.44;6139834;28;20345;-72
2021/01/22 00:49:20;;;;;;;3.63;1.67;;;;;;;3.68;91.18;98978.59;6117585;29;20677;-71
2021/01/22 00:52:23;;;;;;;4.47;2.00;;;;;;;3.78;90.49;98973.53;6133120;29;20251;-71
2021/01/22 00:55:28;;;;;;;2.90;1.67;;;;;;;3.71;91.44;98972.75;6129916;29;20202;-75
2021/01/22 00:58:50;;;;;;;4.17;2.10;;;;;;;3.59;91.29;98960.19;6137551;29;20350;-74
2021/01/22 01:02:07;;;;;;;2.63;1.97;;;;;;;3.71;90.83;98964.66;6117741;29;20205;-72
2021/01/22 01:05:14;;;;;;;5.10;2.10;;;;;;;3.68;91.12;98957.00;6135081;28;20277;-72
2021/01/22 01:08:17;;;;;;;2.20;1.80;;;;;;;3.68;91.14;98967.78;6115214;28;20213;-73
2021/01/22 01:11:39;;;;;;;8.27;2.13;;;;;;;3.68;91.20;98962.41;6112749;29;20215;-72
2021/01/22 01:14:49;;;;;;;6.17;2.20;;;;;;;3.76;90.89;98954.03;6140525;28;20621;-73
2021/01/22 01:18:03;;;;;;;6.00;1.93;;;;;;;3.92;89.98;98951.84;6115724;29;20214;-75
2021/01/22 01:21:06;;;;;;;2.37;1.70;;;;;;;3.92;90.32;98957.25;6136964;28;20205;-75
2021/01/22 01:24:11;;;;;;;4.00;2.13;;;;;;;3.88;90.04;98956.06;6143208;29;20199;-72
2021/01/22 01:27:15;;;;;;;5.07;1.70;;;;;;;3.91;89.90;98961.81;6131475;28;20211;-72
2021/01/22 01:30:19;;;;;;;2.07;1.93;;;;;;;3.87;89.76;98960.63;6133854;29;20228;-72
2021/01/22 01:33:23;;;;;;;5.70;1.90;;;;;;;3.96;90.04;98958.44;6132816;28;20332;-72
2021/01/22 01:36:26;;;;;;;1.33;1.33;;;;;;;4.01;89.62;98961.31;6133055;29;20655;-72
2021/01/22 01:39:29;;;;;;;6.37;2.33;;;;;;;3.93;89.26;98958.91;6139282;28;20214;-72
2021/01/22 01:42:32;;;;;;;8.53;2.07;;;;;;;4.04;88.78;98952.78;6130340;29;20705;-72
2021/01/22 01:45:39;;;;;;;4.67;1.97;;;;;;;4.00;89.61;98959.69;6130964;29;20224;-74
2021/01/22 01:48:44;;;;;;;5.63;1.83;;;;;;;3.89;89.94;98947.72;6135855;29;20210;-71
2021/01/22 01:51:47;;;;;;;2.17;1.97;;;;;;;3.84;90.14;98949.44;6136151;28;20200;-72
2021/01/22 01:54:50;;;;;;;4.70;2.00;;;;;;;3.93;90.21;98957.00;6133691;29;20218;-73
2021/01/22 01:57:54;;;;;;;2.27;1.80;;;;;;;3.98;89.87;98949.09;6131542;29;20198;-73
2021/01/22 02:00:58;;;;;;;6.20;2.20;;;;;;;3.88;90.10;98956.06;6110026;29;20216;-74
2021/01/22 02:04:03;;;;;;;7.23;1.87;;;;;;;3.86;89.69;98956.25;6134832;29;20209;-73
2021/01/22 02:07:08;;;;;;;1.80;1.47;;;;;;;3.95;89.61;98951.41;6131777;29;20201;-74
2021/01/22 02:10:13;;;;;;;7.00;2.10;;;;;;;3.93;89.57;98950.81;6132109;28;20223;-73
2021/01/22 02:13:17;;;;;;;2.43;1.70;;;;;;;3.96;89.26;98958.44;6134248;28;20653;-73
2021/01/22 02:16:21;;;;;;;7.97;2.17;;;;;;;3.99;89.92;98944.53;6137017;28;20657;-73
2021/01/22 02:19:51;;;;;;;5.13;2.30;;;;;;;3.83;90.13;98950.50;6137028;28;20205;-74
2021/01/22 02:22:55;;;;;;;4.97;1.90;;;;;;;3.81;90.65;98945.28;6134892;28;20203;-73
2021/01/22 02:26:26;;;;;;;4.70;2.30;;;;;;;3.78;90.18;98946.56;6123531;28;20301;-74
2021/01/22 02:29:32;;;;;;;4.43;1.80;;;;;;;3.72;90.49;98942.03;6126892;28;20282;-74
2021/01/22 02:32:36;;;;;;;2.03;1.90;;;;;;;3.88;89.96;98945.25;6127333;29;20204;-73
2021/01/22 02:35:41;;;;;;;2.97;1.70;;;;;;;3.91;90.08;98950.19;6131283;29;20397;-74
2021/01/22 02:38:48;;;;;;;3.57;1.90;;;;;;;3.87;89.64;98954.38;6132824;28;20234;-72
2021/01/22 02:41:56;;;;;;;2.57;1.83;;;;;;;3.68;91.29;98934.59;6111933;28;666145;-76
2021/01/22 02:45:00;;;;;;;1.83;1.80;;;;;;;3.76;90.68;98932.47;6126359;28;20649;-74
2021/01/22 02:48:06;;;;;;;6.43;1.70;;;;;;;3.85;90.02;98929.50;6131165;28;20368;-73
2021/01/22 02:51:10;;;;;;;6.60;1.80;;;;;;;3.83;90.69;98928.91;6140446;28;20279;-75
2021/01/22 02:54:14;;;;;;;2.47;1.97;;;;;;;3.87;90.37;98927.41;6133808;28;20282;-72
2021/01/22 02:57:26;;;;;;;2.20;1.90;;;;;;;3.93;89.57;98926.53;6132697;28;20543;-74
2021/01/22 03:00:36;;;;;;;4.27;1.93;;;;;;;3.78;89.72;98932.25;6138919;29;20513;-77
2021/01/22 03:03:47;;;;;;;2.83;2.00;;;;;;;3.91;90.26;98934.84;6133816;28;20218;-73
2021/01/22 03:06:52;;;;;;;3.77;1.83;;;;;;;4.06;89.36;98938.03;6131410;28;20202;-74
2021/01/22 03:09:59;;;;;;;3.80;1.90;;;;;;;3.88;89.85;98929.06;6129477;29;20212;-72
2021/01/22 03:13:07;;;;;;;2.03;1.63;;;;;;;3.87;89.96;98928.25;6137148;28;20228;-74
2021/01/22 03:16:11;;;;;;;4.00;2.20;;;;;;;3.82;89.80;98925.38;6131015;29;20602;-73
2021/01/22 03:19:18;;;;;;;3.37;2.10;;;;;;;3.84;90.45;98933.25;6136902;29;20203;-73
2021/01/22 03:22:21;;;;;;;6.53;2.00;;;;;;;3.90;90.16;98940.47;6138656;29;20210;-72
2021/01/22 03:25:24;;;;;;;4.63;2.30;;;;;;;4.00;89.66;98927.31;6141898;28;20658;-72
2021/01/22 03:28:28;;;;;;;4.40;2.07;;;;;;;3.99;89.07;98928.34;6127907;29;20282;-72
2021/01/22 03:31:32;;;;;;;2.00;1.80;;;;;;;3.99;90.13;98933.72;6128597;28;20223;-73
2021/01/22 03:34:35;;;;;;;8.13;1.80;;;;;;;3.92;89.67;98919.47;6134453;28;20193;-72
2021/01/22 03:37:38;;;;;;;5.33;1.80;;;;;;;3.88;90.43;98923.69;6130445;28;20682;-72
2021/01/22 03:40:42;;;;;;;3.33;1.97;;;;;;;3.96;90.29;98915.28;6130409;28;20241;-72
2021/01/22 03:43:45;;;;;;;2.00;1.90;;;;;;;3.93;90.69;98911.16;6129598;28;20203;-72
2021/01/22 03:46:49;;;;;;;4.13;2.43;;;;;;;4.05;89.92;98919.38;6132435;28;20204;-73
2021/01/22 03:49:53;;;;;;;1.90;1.80;;;;;;;4.01;89.52;98912.75;6132637;28;20215;-74
2021/01/22 03:52:57;;;;;;;4.70;2.13;;;;;;;3.91;91.00;98912.41;6135113;28;20197;-72
2021/01/22 03:56:00;;;;;;;3.40;1.90;;;;;;;3.97;90.83;98917.78;6134517;28;20570;-72
2021/01/22 03:59:04;;;;;;;2.83;2.17;;;;;;;4.09;90.26;98915.16;6134180;28;20291;-73
2021/01/22 04:02:09;;;;;;;4.83;2.07;;;;;;;4.05;91.00;98908.56;6129336;28;20662;-73
2021/01/22 04:05:15;;;;;;;8.67;1.93;;;;;;;3.98;90.70;98921.31;6132944;28;20721;-75
2021/01/22 04:08:18;;;;;;;9.10;2.30;;;;;;;4.04;91.33;98912.31;6129754;28;20211;-74
2021/01/22 04:11:22;;;;;;;2.13;1.67;;;;;;;3.97;91.28;98900.75;6131006;28;20269;-72
2021/01/22 04:14:25;;;;;;;2.40;2.10;;;;;;;3.89;91.87;98903.72;6130521;28;20281;-72
2021/01/22 04:17:30;;;;;;;2.13;2.03;;;;;;;3.91;93.22;98896.25;6129065;29;20207;-73
2021/01/22 04:20:33;;;;;;;2.20;1.83;;;;;;;4.00;92.24;98892.22;6132008;29;20241;-72
2021/01/22 04:23:38;;;;;;;4.53;2.13;;;;;;;3.96;92.91;98883.75;6129587;29;20270;-72
2021/01/22 04:26:41;;;;;;;10.23;2.20;;;;;;;4.14;92.43;98874.84;6137793;28;20543;-72
2021/01/22 04:29:44;;;;;;;5.70;1.90;;;;;;;4.08;92.14;98881.16;6138187;28;20931;-74
2021/01/22 04:32:48;;;;;;;6.07;2.40;;;;;;;4.15;92.82;98881.91;6129046;29;20202;-73
2021/01/22 04:35:52;;;;;;;6.20;2.20;;;;;;;4.08;93.88;98871.19;6130791;29;20364;-73
2021/01/22 04:38:56;;;;;;;4.67;2.43;;;;;;;4.09;93.91;98866.59;6123175;28;20484;-73
2021/01/22 04:42:00;;;;;;;2.50;2.30;;;;;;;4.25;93.34;98860.63;6131610;28;20242;-74
2021/01/22 04:45:06;;;;;;;3.10;2.27;;;;;;;4.20;93.42;98863.16;6138509;28;20229;-73
2021/01/22 04:48:15;;;;;;;6.93;2.23;;;;;;;4.08;93.88;98864.97;6122281;28;20339;-74
2021/01/22 04:51:18;;;;;;;4.53;2.20;;;;;;;4.04;94.05;98858.34;6131532;28;20221;-74
2021/01/22 04:54:26;;;;;;;2.57;2.37;;;;;;;4.16;93.89;98862.78;6134291;28;20625;-73
2021/01/22 04:57:32;;;;;;;4.23;2.07;;;;;;;4.13;93.66;98867.81;6130297;28;20216;-74
2021/01/22 05:00:35;;;;;;;2.00;1.90;;;;;;;4.19;93.54;98862.34;6129292;29;20205;-73
2021/01/22 05:03:41;;;;;;;4.27;2.00;;;;;;;4.12;93.56;98866.16;6127953;29;20199;-74
2021/01/22 05:06:48;;;;;;;7.10;2.43;;;;;;;4.13;94.31;98878.59;6126428;29;20199;-74
2021/01/22 05:09:54;;;;;;;5.83;2.30;;;;;;;4.14;94.52;98864.06;6137459;28;20625;-73
2021/01/22 05:12:57;;;;;;;2.40;2.03;;;;;;;4.20;94.36;98868.56;6138073;28;20530;-74
2021/01/22 05:16:11;;;;;;;4.17;2.07;;;;;;;4.27;94.14;98853.13;6120696;29;20218;-74
2021/01/22 05:19:22;;;;;;;2.50;2.30;;;;;;;4.31;93.88;98854.34;6127158;29;20202;-76
2021/01/22 05:22:26;;;;;;;6.63;2.57;;;;;;;4.39;93.56;98856.75;6139815;28;20207;-72
2021/01/22 05:25:29;;;;;;;4.47;2.20;;;;;;;4.38;94.11;98844.28;6144245;28;20200;-73
2021/01/22 05:28:41;;;;;;;3.40;1.93;;;;;;;4.20;93.55;98830.78;6138493;28;20204;-72
2021/01/22 05:31:45;;;;;;;10.93;2.00;;;;;;;4.32;93.80;98845.19;6139132;28;20245;-73
2021/01/22 05:34:50;;;;;;;6.07;2.17;;;;;;;4.40;93.74;98837.59;6134361;29;20790;-74
2021/01/22 05:37:53;;;;;;;3.70;2.00;;;;;;;4.40;94.53;98842.19;6145654;29;20230;-73
2021/01/22 05:40:58;;;;;;;6.10;2.27;;;;;;;4.48;93.84;98820.28;6131832;28;20351;-72
2021/01/22 05:44:01;;;;;;;2.57;2.33;;;;;;;4.43;94.05;98814.72;6135641;28;20272;-74
2021/01/22 05:47:08;;;;;;;5.03;2.03;;;;;;;4.49;94.18;98813.84;6136999;28;20289;-73
2021/01/22 05:50:15;;;;;;;3.10;2.17;;;;;;;4.48;93.72;98817.56;6137243;28;20246;-75
2021/01/22 05:53:20;;;;;;;10.03;2.37;;;;;;;4.44;94.31;98811.78;6129609;28;20233;-73
2021/01/22 05:56:23;;;;;;;3.17;2.13;;;;;;;4.64;93.49;98816.97;6132796;29;20196;-74
2021/01/22 05:59:27;;;;;;;12.33;2.40;;;;;;;4.54;93.46;98813.97;6135293;28;20288;-72
2021/01/22 06:02:31;;;;;;;7.27;2.40;;;;;;;4.43;94.48;98814.72;6134587;28;20219;-72
2021/01/22 06:05:36;;;;;;;3.43;1.97;;;;;;;4.47;94.32;98810.50;6133406;28;20731;-72
2021/01/22 06:08:50;;;;;;;3.27;2.33;;;;;;;4.43;94.99;98809.34;6135877;28;20196;-71
2021/01/22 06:11:53;;;;;;;5.30;1.93;;;;;;;4.48;94.70;98806.78;6134057;28;20229;-73
2021/01/22 06:14:58;;;;;;;7.57;2.33;;;;;;;4.39;94.41;98791.94;6148725;28;20210;-72
2021/01/22 06:18:03;;;;;;;3.73;2.13;;;;;;;4.31;95.72;98781.47;6131302;28;20206;-72
2021/01/22 06:21:17;;;;;;;4.67;2.10;;;;;;;4.44;95.33;98800.19;6134298;28;20547;-76
2021/01/22 06:24:21;;;;;;;7.83;2.20;;;;;;;4.39;95.56;98797.34;6142885;29;20203;-73
2021/01/22 06:27:25;;;;;;;3.60;2.57;;;;;;;4.58;95.87;98785.47;6137661;28;20208;-73
2021/01/22 06:30:29;;;;;;;9.57;2.93;;;;;;;4.54;95.92;98789.69;6147745;28;20222;-74
2021/01/22 06:33:34;;;;;;;7.60;2.40;;;;;;;4.58;94.95;98788.16;6146775;28;20206;-73
2021/01/22 06:36:39;;;;;;;11.23;2.80;;;;;;;4.57;95.27;98783.78;6128619;29;20290;-74
2021/01/22 06:39:43;;;;;;;6.17;2.40;;;;;;;4.53;95.71;98777.22;6138259;29;20212;-73
2021/01/22 06:42:46;;;;;;;7.90;2.43;;;;;;;4.56;95.48;98778.63;6142141;28;20331;-76
2021/01/22 06:45:50;;;;;;;8.10;2.40;;;;;;;4.55;96.02;98780.50;6141177;28;20214;-75
2021/01/22 06:48:55;;;;;;;5.93;2.47;;;;;;;4.64;96.49;98768.34;6136020;28;20193;-73
2021/01/22 06:52:10;;;;;;;7.47;2.30;;;;;;;4.84;94.98;98778.88;6135000;29;20660;-73
2021/01/22 06:55:14;;;;;;;10.67;2.63;;;;;;;4.85;95.47;98770.53;6130168;29;20201;-73
2021/01/22 06:58:25;;;;;;;4.77;2.33;;;;;;;4.70;95.25;98762.00;6139803;28;20200;-71
2021/01/22 07:01:33;;;;;;;4.07;2.27;;;;;;;4.79;95.78;98763.34;6124991;29;20222;-74
2021/01/22 07:04:40;;;;;;;4.00;2.47;;;;;;;4.73;96.25;98766.97;6145671;28;20207;-74
2021/01/22 07:07:46;;;;;;;3.40;2.50;;;;;;;4.78;95.52;98747.34;6125982;29;20623;-73
2021/01/22 07:11:03;;;;;;;4.37;2.10;;;;;;;4.86;95.18;98745.16;6127182;29;20546;-74
2021/01/22 07:14:34;;;;;;;7.87;2.20;;;;;;;4.86;95.46;98745.16;6135138;28;20236;-74
2021/01/22 07:17:38;;;;;;;2.53;2.13;;;;;;;4.81;95.31;98736.09;6130524;29;20196;-74
2021/01/22 07:20:41;;;;;;;6.53;2.60;;;;;;;4.84;95.93;98725.66;6121895;29;20233;-75
2021/01/22 07:23:46;;;;;;;2.77;2.20;;;;;;;4.96;95.03;98718.41;6137341;28;20207;-73
2021/01/22 07:26:53;;;;;;;5.80;2.10;;;;;;;4.81;94.86;98720.72;6130494;28;20202;-74
2021/01/22 07:30:16;;;;;;;5.40;2.07;;;;;;;4.77;95.95;98714.13;6132810;29;20624;-74
2021/01/22 07:33:37;;;;;;;5.63;2.00;;;;;;;4.80;96.04;98710.94;6139926;29;20227;-76
2021/01/22 07:36:50;;;;;;;4.33;2.20;;;;;;;4.76;96.29;98704.38;6134435;28;20760;-76
2021/01/22 07:39:55;;;;;;;7.67;2.60;;;;;;;4.76;96.13;98700.84;6117571;29;20283;-74
2021/01/22 07:43:12;;;;;;;3.70;2.00;;;;;;;4.82;96.35;98687.25;6134765;28;20239;-75
2021/01/22 07:46:15;;;;;;;4.03;2.00;;;;;;;4.80;95.78;98692.03;6133973;28;20235;-74
2021/01/22 07:49:18;;;;;;;5.80;1.77;;;;;;;4.78;96.62;98683.34;6132249;28;20216;-74
2021/01/22 07:52:22;;;;;;;3.83;2.27;;;;;;;4.75;97.47;98678.41;6134195;28;20704;-74
2021/01/22 07:55:26;;;;;;;7.73;2.23;;;;;;;4.81;96.47;98677.50;6136209;28;20211;-75
2021/01/22 07:58:29;;;;;;;7.47;2.20;;;;;;;4.94;95.76;98673.75;6134636;28;20512;-75
2021/01/22 08:01:33;;;;;;;6.50;2.30;;;;;;;4.76;96.69;98671.97;6131201;28;20211;-74
2021/01/22 08:04:36;;;;;;;7.07;2.20;;;;;;;5.04;96.08;98666.72;6131520;28;20230;-74
2021/01/22 08:07:41;;;;;;;7.73;1.87;;;;;;;4.89;96.74;98658.25;6129823;29;20191;-75
2021/01/22 08:10:46;;;;;;;2.53;2.00;;;;;;;5.06;97.13;98648.38;6131697;29;20513;-77
2021/01/22 08:13:49;;;;;;;4.33;2.00;;;;;;;5.00;96.87;98649.34;6132763;28;20302;-72
2021/01/22 08:16:52;;;;;;;3.40;2.00;;;;;;;4.97;97.45;98646.28;6131967;29;20287;-74
2021/01/22 08:19:57;;;;;;;2.43;2.07;;;;;;;5.07;97.32;98639.22;6142860;28;20201;-74
2021/01/22 08:23:00;;;;;;;4.60;2.33;;;;;;;5.09;96.47;98630.88;6124787;28;20196;-73
2021/01/22 08:26:08;;;;;;;4.10;2.00;;;;;;;5.15;96.27;98634.53;6133503;28;20633;-74
2021/01/22 08:29:11;;;;;;;5.97;2.40;;;;;;;5.03;96.67;98632.63;6131317;28;20207;-74
2021/01/22 08:32:18;;;;;;;5.70;2.20;;;;;;;4.94;96.94;98620.53;6137135;28;20216;-75
2021/01/22 08:35:22;;;;;;;5.57;2.30;;;;;;;4.82;97.97;98618.91;6138451;28;20229;-74
2021/01/22 08:38:27;;;;;;;2.53;2.30;;;;;;;5.07;96.33;98627.59;6131696;28;20230;-72
2021/01/22 08:41:32;;;;;;;4.97;2.40;;;;;;;5.04;96.20;98620.78;6135333;29;20291;-73
2021/01/22 08:44:50;;;;;;;8.67;2.40;;;;;;;4.94;96.44;98615.13;6138077;28;21041;-74
2021/01/22 08:47:53;;;;;;;2.27;2.17;;;;;;;4.82;97.66;98619.72;6137195;28;20277;-73
2021/01/22 08:50:58;;;;;;;1.90;1.80;;;;;;;4.73;98.02;98626.50;6141557;29;20210;-73
2021/01/22 08:54:02;;;;;;;2.53;2.23;;;;;;;4.65;97.95;98624.13;6143794;29;20200;-73
2021/01/22 08:57:08;;;;;;;3.80;2.33;;;;;;;4.55;97.91;98618.50;6136685;28;20243;-72
2021/01/22 09:00:15;;;;;;;2.97;2.33;;;;;;;4.69;96.34;98606.44;6133042;28;20190;-73
2021/01/22 09:03:21;;;;;;;2.07;1.97;;;;;;;4.58;96.67;98607.22;6141208;29;20288;-74
2021/01/22 09:06:46;;;;;;;2.53;2.23;;;;;;;4.40;96.89;98596.50;6146347;29;20651;-73
2021/01/22 09:09:51;;;;;;;2.20;2.10;;;;;;;4.65;95.69;98570.13;6138037;29;20209;-73
2021/01/22 09:13:07;;;;;;;1.80;1.70;;;;;;;4.65;96.04;98570.13;6128493;29;20654;-74
2021/01/22 09:16:11;;;;;;;2.93;1.70;;;;;;;4.50;96.50;98563.53;6135294;29;20208;-73
2021/01/22 09:19:15;;;;;;;3.50;2.33;;;;;;;4.47;98.00;98556.72;6138086;29;20234;-76
2021/01/22 09:22:22;;;;;;;4.03;2.40;;;;;;;4.49;97.48;98543.84;6138464;29;20237;-72
2021/01/22 09:25:26;;;;;;;2.13;2.00;;;;;;;4.56;96.05;98533.75;6140308;28;20698;-73
2021/01/22 09:28:30;;;;;;;1.97;1.97;;;;;;;4.60;95.54;98525.97;6149188;28;20504;-74
2021/01/22 09:31:34;;;;;;;2.13;2.03;;;;;;;4.63;95.19;98512.84;6145428;28;20210;-72
2021/01/22 09:34:38;;;;;;;2.53;2.20;;;;;;;4.79;94.68;98495.94;6135174;28;20953;-73
2021/01/22 09:37:42;;;;;;;2.00;1.90;;;;;;;4.79;94.30;98489.69;6136387;28;20232;-74
2021/01/22 09:40:45;;;;;;;1.90;1.90;;;;;;;4.72;95.12;98489.84;6134326;29;20236;-72
2021/01/22 09:43:49;;;;;;;2.37;2.10;;;;;;;4.71;95.15;98466.56;6144862;28;20209;-74
2021/01/22 09:46:52;;;;;;;2.27;2.10;;;;;;;4.65;96.02;98462.09;6131774;29;20205;-73
2021/01/22 09:49:55;;;;;;;2.63;2.30;;;;;;;4.67;96.11;98454.59;6133406;29;20217;-73
2021/01/22 09:52:59;;;;;;;7.23;2.40;;;;;;;4.75;96.20;98432.63;6135737;29;20214;-74
2021/01/22 09:56:02;;;;;;;2.73;2.13;;;;;;;4.59;97.98;98435.22;6131503;28;20728;-73
2021/01/22 09:59:07;;;;;;;3.33;2.80;;;;;;;4.79;97.27;98417.59;6145926;28;20381;-74
2021/01/22 10:02:11;;;;;;;5.83;3.00;;;;;;;4.79;97.47;98398.69;6142487;28;20207;-73
2021/01/22 10:05:16;;;;;;;3.33;3.03;;;;;;;4.92;97.53;98398.41;6141498;28;20239;-73
2021/01/22 10:08:19;;;;;;;3.60;3.40;;;;;;;4.74;98.76;98390.47;6129898;29;20209;-77
2021/01/22 10:11:23;;;;;;;5.07;3.90;;;;;;;4.90;99.14;98378.94;6134152;28;20217;-75
2021/01/22 10:14:27;;;;;;;6.03;4.43;;;;;;;4.92;99.38;98376.81;6139361;28;20197;-73
2021/01/22 10:17:30;;;;;;;4.83;4.10;;;;;;;4.82;100.00;98355.00;6135184;29;20245;-75
2021/01/22 10:20:34;;;;;;;5.63;4.80;;;;;;;4.83;100.00;98362.00;6140821;29;20228;-74
2021/01/22 10:23:38;;;;;;;6.77;5.00;;;;;;;4.83;100.00;98356.63;6143061;28;20262;-73
2021/01/22 10:26:41;;;;;;;7.27;5.90;;;;;;;4.96;100.00;98345.53;6144408;28;20213;-74
2021/01/22 10:29:45;;;;;;;7.63;6.10;;;;;;;5.13;100.00;98333.94;6136928;28;20621;-74
2021/01/22 10:32:49;;;;;;;10.77;6.00;;;;;;;5.04;100.00;98337.03;6143613;29;20291;-77
2021/01/22 10:35:53;;;;;;;10.60;6.77;;;;;;;5.11;100.00;98322.56;6146501;29;20683;-73
2021/01/22 10:38:56;;;;;;;7.97;6.60;;;;;;;5.08;100.00;98305.75;6141892;29;20235;-76
2021/01/22 10:41:59;;;;;;;10.33;7.03;;;;;;;5.10;100.00;98307.41;6125225;29;20900;-73
2021/01/22 10:45:04;;;;;;;13.50;7.03;;;;;;;5.25;100.00;98294.16;6141974;28;20211;-75
2021/01/22 10:48:11;;;;;;;13.40;6.53;;;;;;;5.18;100.00;98291.63;6135628;29;20566;-76
2021/01/22 10:51:15;;;;;;;9.70;7.07;;;;;;;5.16;100.00;98279.41;6141106;28;20207;-74
2021/01/22 10:54:18;;;;;;;11.47;7.90;;;;;;;5.22;100.00;98264.91;6159860;28;20221;-75
2021/01/22 10:57:21;;;;;;;11.80;7.43;;;;;;;5.10;100.00;98247.94;6137024;28;20215;-76
2021/01/22 11:00:26;;;;;;;15.33;7.80;;;;;;;5.14;100.00;98249.09;6139538;28;20607;-74
2021/01/22 11:03:30;;;;;;;15.67;8.53;;;;;;;5.06;100.00;98245.75;6134254;29;20213;-74
2021/01/22 11:06:33;;;;;;;15.60;9.60;;;;;;;5.11;100.00;98233.41;6135092;28;20389;-76
2021/01/22 11:09:36;;;;;;;18.13;9.63;;;;;;;5.13;100.00;98225.84;6140757;28;20586;-74
2021/01/22 11:12:40;;;;;;;21.23;9.53;;;;;;;5.14;100.00;98225.59;6143667;28;20639;-75
2021/01/22 11:15:44;;;;;;;16.90;9.40;;;;;;;5.12;100.00;98208.00;6138379;29;20220;-76
2021/01/22 11:18:47;;;;;;;19.60;9.97;;;;;;;5.12;100.00;98208.00;6123609;29;20193;-77
2021/01/22 11:21:52;;;;;;;16.33;10.17;;;;;;;5.24;100.00;98190.63;6126298;29;20230;-78
2021/01/22 11:24:55;;;;;;;21.03;9.70;;;;;;;5.20;100.00;98183.25;6135200;28;20220;-77
2021/01/22 11:27:58;;;;;;;22.17;9.63;;;;;;;5.32;100.00;98176.69;6145839;28;20205;-73
2021/01/22 11:31:02;;;;;;;18.57;9.57;;;;;;;5.24;100.00;98168.22;6133754;28;20628;-73
2021/01/22 11:34:05;;;;;;;17.77;9.27;;;;;;;5.42;100.00;98170.63;6124679;29;20218;-74
2021/01/22 11:37:09;;;;;;;17.70;9.40;;;;;;;5.42;100.00;98148.97;6137611;29;20268;-74
2021/01/22 11:40:13;;;;;;;18.43;9.73;;;;;;;5.34;100.00;98147.53;6137351;29;20789;-75
2021/01/22 11:43:16;;;;;;;19.47;9.40;;;;;;;5.51;100.00;98137.50;6133152;29;20273;-76
2021/01/22 11:46:21;;;;;;;20.87;8.93;;;;;;;5.52;100.00;98122.13;6145196;29;20201;-75
2021/01/22 11:49:25;;;;;;;16.50;8.17;;;;;;;5.53;100.00;98129.97;6138288;29;20208;-75
2021/01/22 11:52:28;;;;;;;19.33;9.00;;;;;;;5.52;100.00;98111.28;6135027;29;20230;-76
2021/01/22 11:55:31;;;;;;;15.20;8.00;;;;;;;5.62;100.00;98106.03;6143249;28;20689;-75
2021/01/22 11:58:35;;;;;;;17.60;7.77;;;;;;;5.70;100.00;98100.16;6129283;28;20205;-74
2021/01/22 12:01:39;;;;;;;14.10;7.63;;;;;;;5.76;100.00;98091.03;6112408;29;20202;-72
2021/01/22 12:04:43;;;;;;;16.10;7.10;;;;;;;5.72;100.00;98056.63;6144525;28;20284;-73
2021/01/22 12:07:46;;;;;;;12.90;7.50;;;;;;;5.66;100.00;98070.09;6131906;29;20208;-74
2021/01/22 12:10:50;;;;;;;11.60;7.07;;;;;;;5.74;100.00;98039.09;6133402;28;20600;-73
2021/01/22 12:13:53;;;;;;;16.80;7.57;;;;;;;5.81;100.00;98028.88;6132928;29;20244;-73
2021/01/22 12:16:58;;;;;;;14.43;7.97;;;;;;;5.77;100.00;98033.16;6132952;29;20242;-74
2021/01/22 12:20:01;;;;;;;12.10;6.67;;;;;;;5.67;100.00;98030.34;6136165;29;20565;-74
2021/01/22 12:23:05;;;;;;;14.43;8.03;;;;;;;5.69;100.00;98033.63;6130103;28;20198;-74
2021/01/22 12:26:09;;;;;;;9.73;6.57;;;;;;;5.62;100.00;98024.88;6153313;28;20204;-76
2021/01/22 12:29:12;;;;;;;10.33;6.33;;;;;;;5.70;100.00;98024.41;6129121;29;20282;-73
2021/01/22 12:32:16;;;;;;;14.73;6.97;;;;;;;5.72;100.00;98025.00;6123885;29;20213;-75
2021/01/22 12:35:21;;;;;;;9.10;6.20;;;;;;;5.70;100.00;98024.41;6138661;28;20197;-73
2021/01/22 12:38:25;;;;;;;15.63;5.87;;;;;;;5.73;100.00;97999.56;6134757;29;20346;-73
2021/01/22 12:41:30;;;;;;;13.30;5.73;;;;;;;5.79;100.00;97993.16;6143734;28;20723;-73
2021/01/22 12:44:34;;;;;;;16.57;5.90;;;;;;;5.83;100.00;97980.72;6147355;28;20688;-73
2021/01/22 12:47:38;;;;;;;10.97;6.00;;;;;;;5.76;100.00;97965.78;6148807;29;20209;-74
2021/01/22 12:50:42;;;;;;;10.87;4.63;;;;;;;5.79;100.00;97960.69;6139858;29;20194;-73
2021/01/22 12:53:46;;;;;;;11.37;4.90;;;;;;;5.87;100.00;97952.16;6147982;29;20225;-73
2021/01/22 12:56:49;;;;;;;7.57;4.80;;;;;;;5.90;100.00;97951.63;6142510;28;20241;-73
2021/01/22 12:59:52;;;;;;;6.20;4.37;;;;;;;5.88;100.00;97948.34;6155941;28;20226;-74
2021/01/22 13:02:56;;;;;;;10.63;5.17;;;;;;;5.83;100.00;97945.56;6147948;29;20201;-75
2021/01/22 13:06:00;;;;;;;7.60;3.93;;;;;;;5.98;100.00;97921.41;6139212;29;22210;-74
2021/01/22 13:09:04;;;;;;;7.40;4.27;;;;;;;5.92;100.00;97922.44;6133329;29;20207;-76
2021/01/22 13:12:08;;;;;;;8.23;4.13;;;;;;;5.99;100.00;97924.91;6130312;29;20564;-74
2021/01/22 13:15:12;;;;;;;8.80;3.93;;;;;;;6.03;100.00;97913.34;6149424;28;20215;-75
2021/01/22 13:18:17;;;;;;;5.00;3.80;;;;;;;6.07;100.00;97903.59;6141394;29;20252;-74
2021/01/22 13:21:21;;;;;;;7.37;4.03;;;;;;;6.11;100.00;97898.50;6143864;28;20202;-75
2021/01/22 13:24:24;;;;;;;7.50;3.33;;;;;;;6.00;100.00;97896.78;6148799;28;20519;-79
2021/01/22 13:27:27;;;;;;;7.13;3.03;;;;;;;6.09;100.00;97901.44;6132369;28;20226;-75
2021/01/22 13:30:30;;;;;;;6.77;3.50;;;;;;;6.07;100.00;97898.19;6131794;28;20555;-74
2021/01/22 13:33:36;;;;;;;7.07;3.53;;;;;;;6.09;100.00;97885.22;6136098;28;20227;-74
2021/01/22 13:36:39;;;;;;;6.50;3.20;;;;;;;6.06;100.00;97874.91;6133798;28;20566;-73
2021/01/22 13:39:42;;;;;;;4.83;3.40;;;;;;;6.02;100.00;97879.22;6136842;29;20231;-73
2021/01/22 13:42:48;;;;;;;3.00;2.90;;;;;;;6.14;100.00;97871.72;6150092;28;20234;-73
2021/01/22 13:45:51;;;;;;;4.13;2.63;;;;;;;6.29;100.00;97863.69;6145455;28;20486;-72
2021/01/22 13:48:55;;;;;;;5.23;3.00;;;;;;;6.11;100.00;97866.81;6140350;29;20242;-78
2021/01/22 13:51:58;;;;;;;3.67;3.20;;;;;;;6.17;100.00;97867.69;6143474;29;20213;-77
2021/01/22 13:55:02;;;;;;;8.57;3.50;;;;;;;6.13;100.00;97859.28;6139825;29;20588;-74
2021/01/22 13:58:07;;;;;;;8.20;3.40;;;;;;;6.13;100.00;97875.53;6147364;28;20211;-76
2021/01/22 14:01:11;;;;;;;9.10;3.33;;;;;;;6.12;100.00;97873.88;6137513;29;20195;-78
2021/01/22 14:04:16;;;;;;;9.17;3.00;;;;;;;6.09;100.00;97868.97;6137880;29;20207;-75
2021/01/22 14:07:19;;;;;;;7.57;3.03;;;;;;;6.18;100.00;97862.03;6126477;29;20847;-74
2021/01/22 14:10:23;;;;;;;3.83;2.90;;;;;;;6.10;100.00;97876.03;6140367;28;20228;-74
2021/01/22 14:13:28;;;;;;;9.83;3.17;;;;;;;6.00;100.00;97875.97;6155602;28;20689;-73
2021/01/22 14:16:32;;;;;;;10.40;2.83;;;;;;;6.01;100.00;97869.44;6144920;28;20645;-74
2021/01/22 14:19:36;;;;;;;5.13;2.90;;;;;;;5.94;100.00;97906.75;6134277;28;20199;-74
2021/01/22 14:22:40;;;;;;;4.63;2.93;;;;;;;6.01;99.29;97899.22;6141254;28;20188;-73
2021/01/22 14:25:43;;;;;;;7.67;2.47;;;;;;;6.10;97.54;97903.09;6140463;28;20201;-74
2021/01/22 14:28:46;;;;;;;3.40;2.40;;;;;;;6.02;96.24;97910.88;6142215;28;20197;-73
2021/01/22 14:31:50;;;;;;;3.93;2.00;;;;;;;6.02;96.27;97930.63;6135337;28;20228;-74
2021/01/22 14:34:54;;;;;;;2.20;2.00;;;;;;;5.93;94.77;97951.09;6142868;28;20250;-74
2021/01/22 14:37:57;;;;;;;2.67;1.80;;;;;;;5.99;91.73;97971.72;6141704;28;20230;-74